Search for airport 
image banner adimage banner adimage banner ad
image banner ad

A34 - Dayton Valley Airpark

Located in Dayton/Carson City, United States

ICAO - A34, IATA -

Data provided by Airmate  

General information

Coordinates: N39°14'18" W119°33'20"
Elevation is 4414 feet MSL.
Magnetic variation is 16° East
View others Airports in Nevada

Operational data

Special qualification required
Current time UTC:
Current local time:
Weather at : KCXP - Carson ( 16 km )
METAR: KCXP 130955Z AUTO 00000KT 10SM CLR 14/04 A3002 RMK AO2
TAF: KCXP 130530Z 1306/1406 VRB04KT P6SM FEW250 FM131500 21007KT P6SM FEW200 FM132100 25013G22KT P6SM FEW090 FM140300 22010KT P6SM FEW250
View NOTAMs / SUP AIP / TFR affecting this airport [VIEW]
Communications frequencies: [VIEW]

Runways:

RWY identifierQFULength (ft)Width (ft)SurfaceLDA (ft)
0565°534375ASPH
23245°534375ASPH

Airport contact information

Address: Dayton/Carson City United States

Satellite view of A34